sensor_id;sensor_type;location;lat;lon;timestamp;P1;durP1;ratioP1;P2;durP2;ratioP2
9174;SDS011;54374;50.196;8.050;2022-10-16T00:01:10;6.13;;;2.35;;
9174;SDS011;54374;50.196;8.050;2022-10-16T00:03:40;1.75;;;0.70;;
9174;SDS011;54374;50.196;8.050;2022-10-16T00:06:09;1.80;;;1.73;;
9174;SDS011;54374;50.196;8.050;2022-10-16T00:08:37;1.10;;;0.60;;
9174;SDS011;54374;50.196;8.050;2022-10-16T00:11:06;4.88;;;0.85;;
9174;SDS011;54374;50.196;8.050;2022-10-16T00:13:34;5.70;;;0.90;;
9174;SDS011;54374;50.196;8.050;2022-10-16T00:16:02;1.88;;;0.70;;
9174;SDS011;54374;50.196;8.050;2022-10-16T00:18:29;1.52;;;0.90;;
9174;SDS011;54374;50.196;8.050;2022-10-16T00:21:01;1.65;;;0.80;;
9174;SDS011;54374;50.196;8.050;2022-10-16T00:23:51;2.45;;;0.85;;
9174;SDS011;54374;50.196;8.050;2022-10-16T00:26:18;0.93;;;0.70;;
9174;SDS011;54374;50.196;8.050;2022-10-16T00:28:45;0.80;;;0.80;;
9174;SDS011;54374;50.196;8.050;2022-10-16T00:31:13;1.15;;;0.60;;
9174;SDS011;54374;50.196;8.050;2022-10-16T00:33:40;0.93;;;0.73;;
9174;SDS011;54374;50.196;8.050;2022-10-16T00:36:09;4.55;;;0.95;;
9174;SDS011;54374;50.196;8.050;2022-10-16T00:38:37;6.57;;;1.10;;
9174;SDS011;54374;50.196;8.050;2022-10-16T00:41:05;6.38;;;0.85;;
9174;SDS011;54374;50.196;8.050;2022-10-16T00:43:34;1.50;;;0.82;;
9174;SDS011;54374;50.196;8.050;2022-10-16T00:46:04;0.77;;;0.77;;
9174;SDS011;54374;50.196;8.050;2022-10-16T00:48:34;1.65;;;0.63;;
9174;SDS011;54374;50.196;8.050;2022-10-16T00:51:02;1.73;;;0.80;;
9174;SDS011;54374;50.196;8.050;2022-10-16T00:53:31;1.92;;;0.80;;
9174;SDS011;54374;50.196;8.050;2022-10-16T00:55:58;2.60;;;0.60;;
9174;SDS011;54374;50.196;8.050;2022-10-16T00:58:26;3.85;;;0.80;;
9174;SDS011;54374;50.196;8.050;2022-10-16T01:04:14;1.88;;;0.90;;
9174;SDS011;54374;50.196;8.050;2022-10-16T01:06:43;2.53;;;0.80;;
9174;SDS011;54374;50.196;8.050;2022-10-16T01:09:16;0.60;;;0.60;;
9174;SDS011;54374;50.196;8.050;2022-10-16T01:11:49;3.42;;;0.90;;
9174;SDS011;54374;50.196;8.050;2022-10-16T01:14:24;7.18;;;1.10;;
9174;SDS011;54374;50.196;8.050;2022-10-16T01:16:55;1.50;;;0.80;;
9174;SDS011;54374;50.196;8.050;2022-10-16T01:19:36;0.60;;;0.60;;
9174;SDS011;54374;50.196;8.050;2022-10-16T01:22:21;4.03;;;0.80;;
9174;SDS011;54374;50.196;8.050;2022-10-16T01:24:52;4.72;;;1.00;;
9174;SDS011;54374;50.196;8.050;2022-10-16T01:27:22;4.45;;;1.00;;
9174;SDS011;54374;50.196;8.050;2022-10-16T01:29:52;5.72;;;0.70;;
9174;SDS011;54374;50.196;8.050;2022-10-16T01:32:23;9.20;;;0.70;;
9174;SDS011;54374;50.196;8.050;2022-10-16T01:34:54;1.75;;;0.75;;
9174;SDS011;54374;50.196;8.050;2022-10-16T01:37:27;0.65;;;0.50;;
9174;SDS011;54374;50.196;8.050;2022-10-16T01:39:58;3.15;;;0.80;;
9174;SDS011;54374;50.196;8.050;2022-10-16T01:42:30;3.58;;;0.80;;
9174;SDS011;54374;50.196;8.050;2022-10-16T01:45:02;4.50;;;0.82;;
9174;SDS011;54374;50.196;8.050;2022-10-16T01:47:31;2.78;;;0.60;;
9174;SDS011;54374;50.196;8.050;2022-10-16T01:49:59;1.77;;;0.68;;
9174;SDS011;54374;50.196;8.050;2022-10-16T01:52:26;3.25;;;0.60;;
9174;SDS011;54374;50.196;8.050;2022-10-16T01:54:54;5.10;;;0.80;;
9174;SDS011;54374;50.196;8.050;2022-10-16T01:57:22;2.58;;;0.77;;
9174;SDS011;54374;50.196;8.050;2022-10-16T01:59:52;5.35;;;0.70;;
9174;SDS011;54374;50.196;8.050;2022-10-16T02:02:22;4.00;;;0.80;;
9174;SDS011;54374;50.196;8.050;2022-10-16T02:04:57;0.70;;;0.70;;
9174;SDS011;54374;50.196;8.050;2022-10-16T02:07:27;2.10;;;0.70;;
9174;SDS011;54374;50.196;8.050;2022-10-16T02:09:54;0.60;;;0.60;;
9174;SDS011;54374;50.196;8.050;2022-10-16T02:12:22;2.17;;;1.10;;
9174;SDS011;54374;50.196;8.050;2022-10-16T02:14:53;2.25;;;0.60;;
9174;SDS011;54374;50.196;8.050;2022-10-16T02:17:20;5.70;;;0.70;;
9174;SDS011;54374;50.196;8.050;2022-10-16T02:19:48;2.80;;;0.63;;
9174;SDS011;54374;50.196;8.050;2022-10-16T02:22:18;3.67;;;0.77;;
9174;SDS011;54374;50.196;8.050;2022-10-16T02:24:49;2.88;;;0.88;;
9174;SDS011;54374;50.196;8.050;2022-10-16T02:27:19;3.47;;;0.98;;
9174;SDS011;54374;50.196;8.050;2022-10-16T02:29:52;2.45;;;0.70;;
9174;SDS011;54374;50.196;8.050;2022-10-16T02:32:24;1.88;;;0.70;;
9174;SDS011;54374;50.196;8.050;2022-10-16T02:34:55;1.33;;;0.70;;
9174;SDS011;54374;50.196;8.050;2022-10-16T02:37:23;2.45;;;0.73;;
9174;SDS011;54374;50.196;8.050;2022-10-16T02:39:51;2.25;;;0.70;;
9174;SDS011;54374;50.196;8.050;2022-10-16T02:42:18;1.85;;;0.55;;
9174;SDS011;54374;50.196;8.050;2022-10-16T02:44:45;3.50;;;0.70;;
9174;SDS011;54374;50.196;8.050;2022-10-16T02:47:13;1.17;;;0.80;;
9174;SDS011;54374;50.196;8.050;2022-10-16T02:49:40;1.30;;;0.70;;
9174;SDS011;54374;50.196;8.050;2022-10-16T02:52:06;3.80;;;0.70;;
9174;SDS011;54374;50.196;8.050;2022-10-16T02:54:33;2.38;;;0.80;;
9174;SDS011;54374;50.196;8.050;2022-10-16T02:57:01;3.35;;;0.85;;
9174;SDS011;54374;50.196;8.050;2022-10-16T02:59:27;0.50;;;0.50;;
9174;SDS011;54374;50.196;8.050;2022-10-16T03:01:54;1.33;;;0.60;;
9174;SDS011;54374;50.196;8.050;2022-10-16T03:04:22;1.73;;;0.60;;
9174;SDS011;54374;50.196;8.050;2022-10-16T03:06:49;1.20;;;0.55;;
9174;SDS011;54374;50.196;8.050;2022-10-16T03:09:16;0.60;;;0.50;;
9174;SDS011;54374;50.196;8.050;2022-10-16T03:11:43;2.78;;;0.60;;
9174;SDS011;54374;50.196;8.050;2022-10-16T03:14:10;5.78;;;0.70;;
9174;SDS011;54374;50.196;8.050;2022-10-16T03:16:36;1.70;;;0.50;;
9174;SDS011;54374;50.196;8.050;2022-10-16T03:19:03;3.38;;;0.77;;
9174;SDS011;54374;50.196;8.050;2022-10-16T03:21:32;3.15;;;0.60;;
9174;SDS011;54374;50.196;8.050;2022-10-16T03:23:59;1.80;;;0.77;;
9174;SDS011;54374;50.196;8.050;2022-10-16T03:26:26;0.40;;;0.40;;
9174;SDS011;54374;50.196;8.050;2022-10-16T03:28:52;2.00;;;0.70;;
9174;SDS011;54374;50.196;8.050;2022-10-16T03:31:19;3.25;;;0.70;;
9174;SDS011;54374;50.196;8.050;2022-10-16T03:33:46;1.05;;;0.70;;
9174;SDS011;54374;50.196;8.050;2022-10-16T03:36:13;0.98;;;0.60;;
9174;SDS011;54374;50.196;8.050;2022-10-16T03:38:41;3.13;;;0.60;;
9174;SDS011;54374;50.196;8.050;2022-10-16T03:41:08;1.30;;;0.60;;
9174;SDS011;54374;50.196;8.050;2022-10-16T03:43:35;0.85;;;0.55;;
9174;SDS011;54374;50.196;8.050;2022-10-16T03:46:02;1.05;;;0.52;;
9174;SDS011;54374;50.196;8.050;2022-10-16T03:48:29;3.22;;;0.60;;
9174;SDS011;54374;50.196;8.050;2022-10-16T03:50:55;0.70;;;0.70;;
9174;SDS011;54374;50.196;8.050;2022-10-16T03:53:22;0.70;;;0.70;;
9174;SDS011;54374;50.196;8.050;2022-10-16T03:55:50;1.00;;;0.75;;
9174;SDS011;54374;50.196;8.050;2022-10-16T03:58:17;0.60;;;0.60;;
9174;SDS011;54374;50.196;8.050;2022-10-16T04:00:45;0.75;;;0.70;;
9174;SDS011;54374;50.196;8.050;2022-10-16T04:03:12;1.38;;;0.70;;
9174;SDS011;54374;50.196;8.050;2022-10-16T04:05:39;1.00;;;0.50;;
9174;SDS011;54374;50.196;8.050;2022-10-16T04:08:06;1.10;;;0.65;;
9174;SDS011;54374;50.196;8.050;2022-10-16T04:10:33;0.65;;;0.65;;
9174;SDS011;54374;50.196;8.050;2022-10-16T04:13:01;1.20;;;0.60;;
9174;SDS011;54374;50.196;8.050;2022-10-16T04:15:28;2.92;;;0.70;;
9174;SDS011;54374;50.196;8.050;2022-10-16T04:17:55;3.95;;;0.80;;
9174;SDS011;54374;50.196;8.050;2022-10-16T04:20:22;4.32;;;0.60;;
9174;SDS011;54374;50.196;8.050;2022-10-16T04:22:49;1.50;;;0.65;;
9174;SDS011;54374;50.196;8.050;2022-10-16T04:25:15;1.42;;;0.70;;
9174;SDS011;54374;50.196;8.050;2022-10-16T04:27:42;2.78;;;0.82;;
9174;SDS011;54374;50.196;8.050;2022-10-16T04:30:11;4.53;;;0.73;;
9174;SDS011;54374;50.196;8.050;2022-10-16T04:32:38;0.60;;;0.60;;
9174;SDS011;54374;50.196;8.050;2022-10-16T04:35:05;1.98;;;0.70;;
9174;SDS011;54374;50.196;8.050;2022-10-16T04:37:33;3.00;;;0.60;;
9174;SDS011;54374;50.196;8.050;2022-10-16T04:40:01;1.20;;;0.50;;
9174;SDS011;54374;50.196;8.050;2022-10-16T04:42:28;2.15;;;0.50;;
9174;SDS011;54374;50.196;8.050;2022-10-16T04:44:54;1.10;;;0.40;;
9174;SDS011;54374;50.196;8.050;2022-10-16T04:47:23;0.50;;;0.50;;
9174;SDS011;54374;50.196;8.050;2022-10-16T04:49:49;2.40;;;0.60;;
9174;SDS011;54374;50.196;8.050;2022-10-16T04:52:16;6.20;;;0.70;;
9174;SDS011;54374;50.196;8.050;2022-10-16T04:54:44;3.33;;;0.70;;
9174;SDS011;54374;50.196;8.050;2022-10-16T04:57:11;4.55;;;0.80;;
9174;SDS011;54374;50.196;8.050;2022-10-16T04:59:38;3.35;;;0.60;;
9174;SDS011;54374;50.196;8.050;2022-10-16T05:02:05;3.92;;;0.73;;
9174;SDS011;54374;50.196;8.050;2022-10-16T05:04:33;0.77;;;0.60;;
9174;SDS011;54374;50.196;8.050;2022-10-16T05:07:00;0.75;;;0.60;;
9174;SDS011;54374;50.196;8.050;2022-10-16T05:09:28;1.00;;;0.70;;
9174;SDS011;54374;50.196;8.050;2022-10-16T05:11:55;1.80;;;0.50;;
9174;SDS011;54374;50.196;8.050;2022-10-16T05:14:22;2.08;;;0.70;;
9174;SDS011;54374;50.196;8.050;2022-10-16T05:16:48;0.77;;;0.77;;
9174;SDS011;54374;50.196;8.050;2022-10-16T05:19:16;0.80;;;0.63;;
9174;SDS011;54374;50.196;8.050;2022-10-16T05:21:44;1.85;;;0.65;;
9174;SDS011;54374;50.196;8.050;2022-10-16T05:24:11;5.13;;;0.68;;
9174;SDS011;54374;50.196;8.050;2022-10-16T05:26:38;0.68;;;0.68;;
9174;SDS011;54374;50.196;8.050;2022-10-16T05:29:05;0.80;;;0.60;;
9174;SDS011;54374;50.196;8.050;2022-10-16T05:31:31;4.47;;;0.60;;
9174;SDS011;54374;50.196;8.050;2022-10-16T05:33:58;1.30;;;0.60;;
9174;SDS011;54374;50.196;8.050;2022-10-16T05:36:29;1.25;;;0.50;;
9174;SDS011;54374;50.196;8.050;2022-10-16T05:38:57;1.63;;;0.63;;
9174;SDS011;54374;50.196;8.050;2022-10-16T05:41:24;2.80;;;0.50;;
9174;SDS011;54374;50.196;8.050;2022-10-16T05:43:51;0.80;;;0.52;;
9174;SDS011;54374;50.196;8.050;2022-10-16T05:46:18;0.70;;;0.70;;
9174;SDS011;54374;50.196;8.050;2022-10-16T05:48:45;2.13;;;0.60;;
9174;SDS011;54374;50.196;8.050;2022-10-16T05:51:13;1.65;;;0.57;;
9174;SDS011;54374;50.196;8.050;2022-10-16T05:53:40;0.98;;;0.60;;
9174;SDS011;54374;50.196;8.050;2022-10-16T05:56:10;3.58;;;0.63;;
9174;SDS011;54374;50.196;8.050;2022-10-16T05:58:38;1.27;;;0.85;;
9174;SDS011;54374;50.196;8.050;2022-10-16T06:01:07;1.15;;;0.60;;
9174;SDS011;54374;50.196;8.050;2022-10-16T06:03:36;1.00;;;1.00;;
9174;SDS011;54374;50.196;8.050;2022-10-16T06:06:07;0.90;;;0.82;;
9174;SDS011;54374;50.196;8.050;2022-10-16T06:08:34;1.75;;;0.80;;
9174;SDS011;54374;50.196;8.050;2022-10-16T06:11:02;0.80;;;0.80;;
9174;SDS011;54374;50.196;8.050;2022-10-16T06:13:31;0.80;;;0.80;;
9174;SDS011;54374;50.196;8.050;2022-10-16T06:15:58;1.10;;;0.90;;
9174;SDS011;54374;50.196;8.050;2022-10-16T06:18:26;3.72;;;0.90;;
9174;SDS011;54374;50.196;8.050;2022-10-16T06:20:54;0.70;;;0.70;;
9174;SDS011;54374;50.196;8.050;2022-10-16T06:23:21;1.67;;;0.82;;
9174;SDS011;54374;50.196;8.050;2022-10-16T06:25:48;1.00;;;1.00;;
9174;SDS011;54374;50.196;8.050;2022-10-16T06:28:15;1.00;;;1.00;;
9174;SDS011;54374;50.196;8.050;2022-10-16T06:30:46;0.98;;;0.90;;
9174;SDS011;54374;50.196;8.050;2022-10-16T06:33:13;1.02;;;0.85;;
9174;SDS011;54374;50.196;8.050;2022-10-16T06:35:40;1.10;;;1.10;;
9174;SDS011;54374;50.196;8.050;2022-10-16T06:38:07;1.35;;;1.25;;
9174;SDS011;54374;50.196;8.050;2022-10-16T06:40:34;0.90;;;0.90;;
9174;SDS011;54374;50.196;8.050;2022-10-16T06:43:01;0.90;;;0.90;;
9174;SDS011;54374;50.196;8.050;2022-10-16T06:45:28;1.30;;;1.20;;
9174;SDS011;54374;50.196;8.050;2022-10-16T06:47:56;1.90;;;1.00;;
9174;SDS011;54374;50.196;8.050;2022-10-16T06:50:23;2.20;;;1.08;;
9174;SDS011;54374;50.196;8.050;2022-10-16T06:52:50;1.20;;;0.95;;
9174;SDS011;54374;50.196;8.050;2022-10-16T06:55:16;5.57;;;1.20;;
9174;SDS011;54374;50.196;8.050;2022-10-16T06:57:43;2.35;;;1.02;;
9174;SDS011;54374;50.196;8.050;2022-10-16T07:00:10;1.40;;;1.30;;
9174;SDS011;54374;50.196;8.050;2022-10-16T07:02:38;2.28;;;1.35;;
9174;SDS011;54374;50.196;8.050;2022-10-16T07:05:06;1.95;;;0.70;;
9174;SDS011;54374;50.196;8.050;2022-10-16T07:07:33;1.35;;;0.90;;
9174;SDS011;54374;50.196;8.050;2022-10-16T07:10:00;2.33;;;0.90;;
9174;SDS011;54374;50.196;8.050;2022-10-16T07:12:27;0.98;;;0.90;;
9174;SDS011;54374;50.196;8.050;2022-10-16T07:14:54;0.90;;;0.90;;
9174;SDS011;54374;50.196;8.050;2022-10-16T07:17:21;1.55;;;1.15;;
9174;SDS011;54374;50.196;8.050;2022-10-16T07:19:48;4.00;;;1.20;;
9174;SDS011;54374;50.196;8.050;2022-10-16T07:22:19;0.80;;;0.80;;
9174;SDS011;54374;50.196;8.050;2022-10-16T07:24:46;2.35;;;1.40;;
9174;SDS011;54374;50.196;8.050;2022-10-16T07:27:13;2.78;;;1.00;;
9174;SDS011;54374;50.196;8.050;2022-10-16T07:29:40;4.70;;;1.00;;
9174;SDS011;54374;50.196;8.050;2022-10-16T07:32:07;2.05;;;1.17;;
9174;SDS011;54374;50.196;8.050;2022-10-16T07:34:34;1.10;;;1.02;;
9174;SDS011;54374;50.196;8.050;2022-10-16T07:37:01;2.53;;;1.13;;
9174;SDS011;54374;50.196;8.050;2022-10-16T07:39:29;1.10;;;0.95;;
9174;SDS011;54374;50.196;8.050;2022-10-16T07:41:56;0.85;;;0.85;;
9174;SDS011;54374;50.196;8.050;2022-10-16T07:44:23;0.90;;;0.90;;
9174;SDS011;54374;50.196;8.050;2022-10-16T07:46:50;2.47;;;1.10;;
9174;SDS011;54374;50.196;8.050;2022-10-16T07:49:16;4.97;;;1.35;;
9174;SDS011;54374;50.196;8.050;2022-10-16T07:51:43;1.20;;;1.10;;
9174;SDS011;54374;50.196;8.050;2022-10-16T07:54:10;2.55;;;1.35;;
9174;SDS011;54374;50.196;8.050;2022-10-16T07:56:38;1.42;;;0.90;;
9174;SDS011;54374;50.196;8.050;2022-10-16T07:59:05;2.70;;;0.82;;
9174;SDS011;54374;50.196;8.050;2022-10-16T08:01:32;2.03;;;1.17;;
9174;SDS011;54374;50.196;8.050;2022-10-16T08:03:59;5.75;;;1.02;;
9174;SDS011;54374;50.196;8.050;2022-10-16T08:06:26;3.10;;;1.73;;
9174;SDS011;54374;50.196;8.050;2022-10-16T08:08:53;0.90;;;0.90;;
9174;SDS011;54374;50.196;8.050;2022-10-16T08:11:20;3.45;;;1.27;;
9174;SDS011;54374;50.196;8.050;2022-10-16T08:13:50;1.23;;;1.10;;
9174;SDS011;54374;50.196;8.050;2022-10-16T08:16:17;1.35;;;1.25;;
9174;SDS011;54374;50.196;8.050;2022-10-16T08:18:43;1.70;;;1.00;;
9174;SDS011;54374;50.196;8.050;2022-10-16T08:21:12;3.17;;;1.30;;
9174;SDS011;54374;50.196;8.050;2022-10-16T08:23:40;1.50;;;1.40;;
9174;SDS011;54374;50.196;8.050;2022-10-16T08:26:08;1.20;;;1.20;;
9174;SDS011;54374;50.196;8.050;2022-10-16T08:28:35;3.50;;;1.30;;
9174;SDS011;54374;50.196;8.050;2022-10-16T08:31:08;1.70;;;1.33;;
9174;SDS011;54374;50.196;8.050;2022-10-16T08:33:35;1.37;;;1.27;;
9174;SDS011;54374;50.196;8.050;2022-10-16T08:36:02;3.77;;;1.17;;
9174;SDS011;54374;50.196;8.050;2022-10-16T08:38:30;1.30;;;1.20;;
9174;SDS011;54374;50.196;8.050;2022-10-16T08:41:00;1.40;;;1.30;;
9174;SDS011;54374;50.196;8.050;2022-10-16T08:43:38;0.70;;;0.70;;
9174;SDS011;54374;50.196;8.050;2022-10-16T08:46:23;0.73;;;0.73;;
9174;SDS011;54374;50.196;8.050;2022-10-16T08:48:57;0.80;;;0.80;;
9174;SDS011;54374;50.196;8.050;2022-10-16T08:51:24;1.07;;;0.70;;
9174;SDS011;54374;50.196;8.050;2022-10-16T08:53:53;1.60;;;0.80;;
9174;SDS011;54374;50.196;8.050;2022-10-16T08:56:22;1.90;;;0.67;;
9174;SDS011;54374;50.196;8.050;2022-10-16T08:58:49;1.20;;;1.10;;
9174;SDS011;54374;50.196;8.050;2022-10-16T09:01:19;0.60;;;0.60;;
9174;SDS011;54374;50.196;8.050;2022-10-16T09:04:03;0.80;;;0.80;;
9174;SDS011;54374;50.196;8.050;2022-10-16T09:06:44;0.60;;;0.60;;
9174;SDS011;54374;50.196;8.050;2022-10-16T09:09:19;0.50;;;0.50;;
9174;SDS011;54374;50.196;8.050;2022-10-16T09:11:53;0.40;;;0.40;;
9174;SDS011;54374;50.196;8.050;2022-10-16T09:14:35;0.70;;;0.50;;
9174;SDS011;54374;50.196;8.050;2022-10-16T09:17:11;1.37;;;0.40;;
9174;SDS011;54374;50.196;8.050;2022-10-16T09:19:50;0.60;;;0.40;;
9174;SDS011;54374;50.196;8.050;2022-10-16T09:22:18;0.60;;;0.40;;
9174;SDS011;54374;50.196;8.050;2022-10-16T09:24:48;0.70;;;0.60;;
9174;SDS011;54374;50.196;8.050;2022-10-16T09:27:15;0.40;;;0.40;;
9174;SDS011;54374;50.196;8.050;2022-10-16T09:29:42;0.40;;;0.40;;
9174;SDS011;54374;50.196;8.050;2022-10-16T09:32:10;3.23;;;0.70;;
9174;SDS011;54374;50.196;8.050;2022-10-16T09:34:40;0.50;;;0.50;;
9174;SDS011;54374;50.196;8.050;2022-10-16T09:37:12;0.40;;;0.40;;
9174;SDS011;54374;50.196;8.050;2022-10-16T09:39:44;0.30;;;0.30;;
9174;SDS011;54374;50.196;8.050;2022-10-16T09:42:11;0.50;;;0.50;;
9174;SDS011;54374;50.196;8.050;2022-10-16T09:44:41;3.70;;;0.70;;
9174;SDS011;54374;50.196;8.050;2022-10-16T09:47:12;0.67;;;0.47;;
9174;SDS011;54374;50.196;8.050;2022-10-16T09:49:50;0.40;;;0.40;;
9174;SDS011;54374;50.196;8.050;2022-10-16T09:52:19;0.40;;;0.40;;
9174;SDS011;54374;50.196;8.050;2022-10-16T09:54:50;2.20;;;0.53;;
9174;SDS011;54374;50.196;8.050;2022-10-16T09:57:17;0.80;;;0.40;;
9174;SDS011;54374;50.196;8.050;2022-10-16T09:59:45;0.40;;;0.40;;
9174;SDS011;54374;50.196;8.050;2022-10-16T10:02:14;0.40;;;0.40;;
9174;SDS011;54374;50.196;8.050;2022-10-16T10:04:44;3.13;;;0.50;;
9174;SDS011;54374;50.196;8.050;2022-10-16T10:07:16;1.53;;;0.50;;
9174;SDS011;54374;50.196;8.050;2022-10-16T10:09:46;0.40;;;0.40;;
9174;SDS011;54374;50.196;8.050;2022-10-16T10:12:17;0.50;;;0.50;;
9174;SDS011;54374;50.196;8.050;2022-10-16T10:14:46;0.60;;;0.40;;
9174;SDS011;54374;50.196;8.050;2022-10-16T10:17:15;0.43;;;0.43;;
9174;SDS011;54374;50.196;8.050;2022-10-16T10:19:48;0.30;;;0.30;;
9174;SDS011;54374;50.196;8.050;2022-10-16T10:22:21;0.50;;;0.50;;
9174;SDS011;54374;50.196;8.050;2022-10-16T10:24:59;0.40;;;0.40;;
9174;SDS011;54374;50.196;8.050;2022-10-16T10:27:31;0.30;;;0.30;;
9174;SDS011;54374;50.196;8.050;2022-10-16T10:30:04;1.07;;;0.40;;
9174;SDS011;54374;50.196;8.050;2022-10-16T10:32:36;0.70;;;0.40;;
9174;SDS011;54374;50.196;8.050;2022-10-16T10:35:11;0.70;;;0.40;;
9174;SDS011;54374;50.196;8.050;2022-10-16T10:37:45;0.40;;;0.40;;
9174;SDS011;54374;50.196;8.050;2022-10-16T10:40:23;1.50;;;0.50;;
9174;SDS011;54374;50.196;8.050;2022-10-16T10:42:57;0.70;;;0.40;;
9174;SDS011;54374;50.196;8.050;2022-10-16T10:45:33;1.37;;;0.40;;
9174;SDS011;54374;50.196;8.050;2022-10-16T10:48:10;0.63;;;0.50;;
9174;SDS011;54374;50.196;8.050;2022-10-16T10:50:45;0.47;;;0.47;;
9174;SDS011;54374;50.196;8.050;2022-10-16T10:53:18;0.80;;;0.50;;
9174;SDS011;54374;50.196;8.050;2022-10-16T10:55:54;1.37;;;0.40;;
9174;SDS011;54374;50.196;8.050;2022-10-16T10:58:36;1.13;;;0.40;;
9174;SDS011;54374;50.196;8.050;2022-10-16T11:01:10;1.13;;;0.30;;
9174;SDS011;54374;50.196;8.050;2022-10-16T11:03:45;0.50;;;0.40;;
9174;SDS011;54374;50.196;8.050;2022-10-16T11:06:19;2.23;;;0.50;;
9174;SDS011;54374;50.196;8.050;2022-10-16T11:08:50;1.47;;;0.50;;
9174;SDS011;54374;50.196;8.050;2022-10-16T11:11:23;0.50;;;0.50;;
9174;SDS011;54374;50.196;8.050;2022-10-16T11:13:54;13.03;;;1.07;;
9174;SDS011;54374;50.196;8.050;2022-10-16T11:16:23;1.43;;;0.60;;
9174;SDS011;54374;50.196;8.050;2022-10-16T11:18:55;0.50;;;0.50;;
9174;SDS011;54374;50.196;8.050;2022-10-16T11:21:26;0.70;;;0.60;;
9174;SDS011;54374;50.196;8.050;2022-10-16T11:23:57;1.40;;;0.80;;
9174;SDS011;54374;50.196;8.050;2022-10-16T11:26:30;0.70;;;0.47;;
9174;SDS011;54374;50.196;8.050;2022-10-16T11:29:05;0.50;;;0.50;;
9174;SDS011;54374;50.196;8.050;2022-10-16T11:31:39;0.60;;;0.60;;
9174;SDS011;54374;50.196;8.050;2022-10-16T11:34:09;1.27;;;0.70;;
9174;SDS011;54374;50.196;8.050;2022-10-16T11:36:44;0.70;;;0.60;;
9174;SDS011;54374;50.196;8.050;2022-10-16T11:39:19;0.83;;;0.83;;
9174;SDS011;54374;50.196;8.050;2022-10-16T11:41:49;0.60;;;0.60;;
9174;SDS011;54374;50.196;8.050;2022-10-16T11:44:26;1.70;;;0.70;;
9174;SDS011;54374;50.196;8.050;2022-10-16T11:47:07;1.07;;;0.70;;
9174;SDS011;54374;50.196;8.050;2022-10-16T11:49:38;2.53;;;0.90;;
9174;SDS011;54374;50.196;8.050;2022-10-16T11:52:07;0.97;;;0.60;;
9174;SDS011;54374;50.196;8.050;2022-10-16T11:54:39;0.60;;;0.60;;
9174;SDS011;54374;50.196;8.050;2022-10-16T11:57:12;0.80;;;0.80;;
9174;SDS011;54374;50.196;8.050;2022-10-16T11:59:42;1.63;;;0.60;;
9174;SDS011;54374;50.196;8.050;2022-10-16T12:02:17;0.60;;;0.60;;
9174;SDS011;54374;50.196;8.050;2022-10-16T12:04:56;3.90;;;0.60;;
9174;SDS011;54374;50.196;8.050;2022-10-16T12:07:32;0.50;;;0.50;;
9174;SDS011;54374;50.196;8.050;2022-10-16T12:10:09;3.00;;;0.70;;
9174;SDS011;54374;50.196;8.050;2022-10-16T12:12:39;0.70;;;0.60;;
9174;SDS011;54374;50.196;8.050;2022-10-16T12:15:18;4.10;;;1.10;;
9174;SDS011;54374;50.196;8.050;2022-10-16T12:17:50;2.30;;;1.27;;
9174;SDS011;54374;50.196;8.050;2022-10-16T12:20:22;2.40;;;1.67;;
9174;SDS011;54374;50.196;8.050;2022-10-16T12:22:53;3.83;;;2.03;;
9174;SDS011;54374;50.196;8.050;2022-10-16T12:25:21;4.10;;;1.90;;
9174;SDS011;54374;50.196;8.050;2022-10-16T12:27:55;4.97;;;2.17;;
9174;SDS011;54374;50.196;8.050;2022-10-16T12:30:23;2.40;;;2.20;;
9174;SDS011;54374;50.196;8.050;2022-10-16T12:32:55;2.17;;;1.97;;
9174;SDS011;54374;50.196;8.050;2022-10-16T12:35:23;2.70;;;1.80;;
9174;SDS011;54374;50.196;8.050;2022-10-16T12:37:52;1.73;;;1.63;;
9174;SDS011;54374;50.196;8.050;2022-10-16T12:40:27;3.17;;;2.10;;
9174;SDS011;54374;50.196;8.050;2022-10-16T12:42:56;3.10;;;2.20;;
9174;SDS011;54374;50.196;8.050;2022-10-16T12:45:25;2.77;;;2.10;;
9174;SDS011;54374;50.196;8.050;2022-10-16T12:47:54;2.37;;;2.17;;
9174;SDS011;54374;50.196;8.050;2022-10-16T12:50:26;3.20;;;2.07;;
9174;SDS011;54374;50.196;8.050;2022-10-16T12:52:56;1.97;;;1.87;;
9174;SDS011;54374;50.196;8.050;2022-10-16T12:55:23;2.23;;;2.03;;
9174;SDS011;54374;50.196;8.050;2022-10-16T12:57:57;6.60;;;2.10;;
9174;SDS011;54374;50.196;8.050;2022-10-16T13:00:31;2.87;;;1.80;;
9174;SDS011;54374;50.196;8.050;2022-10-16T13:03:17;2.93;;;2.60;;
9174;SDS011;54374;50.196;8.050;2022-10-16T13:08:55;4.83;;;2.00;;
9174;SDS011;54374;50.196;8.050;2022-10-16T13:11:35;4.23;;;1.60;;
9174;SDS011;54374;50.196;8.050;2022-10-16T13:14:17;2.40;;;1.30;;
9174;SDS011;54374;50.196;8.050;2022-10-16T13:16:54;2.83;;;2.03;;
9174;SDS011;54374;50.196;8.050;2022-10-16T13:19:28;2.97;;;1.97;;
9174;SDS011;54374;50.196;8.050;2022-10-16T13:21:59;2.20;;;1.80;;
9174;SDS011;54374;50.196;8.050;2022-10-16T13:24:36;2.27;;;2.07;;
9174;SDS011;54374;50.196;8.050;2022-10-16T13:27:12;1.53;;;1.43;;
9174;SDS011;54374;50.196;8.050;2022-10-16T13:29:43;2.00;;;1.80;;
9174;SDS011;54374;50.196;8.050;2022-10-16T13:32:10;2.70;;;1.83;;
9174;SDS011;54374;50.196;8.050;2022-10-16T13:34:43;1.93;;;1.70;;
9174;SDS011;54374;50.196;8.050;2022-10-16T13:37:16;1.97;;;1.77;;
9174;SDS011;54374;50.196;8.050;2022-10-16T13:39:43;1.63;;;1.33;;
9174;SDS011;54374;50.196;8.050;2022-10-16T13:42:11;2.67;;;1.60;;
9174;SDS011;54374;50.196;8.050;2022-10-16T13:44:41;3.23;;;2.13;;
9174;SDS011;54374;50.196;8.050;2022-10-16T13:47:14;6.33;;;1.80;;
9174;SDS011;54374;50.196;8.050;2022-10-16T13:49:43;2.60;;;1.50;;
9174;SDS011;54374;50.196;8.050;2022-10-16T13:52:15;2.63;;;2.07;;
9174;SDS011;54374;50.196;8.050;2022-10-16T13:54:48;3.23;;;1.90;;
9174;SDS011;54374;50.196;8.050;2022-10-16T13:57:15;1.60;;;1.50;;
9174;SDS011;54374;50.196;8.050;2022-10-16T13:59:44;2.10;;;1.63;;
9174;SDS011;54374;50.196;8.050;2022-10-16T14:02:15;1.67;;;1.50;;
9174;SDS011;54374;50.196;8.050;2022-10-16T14:04:46;2.10;;;1.10;;
9174;SDS011;54374;50.196;8.050;2022-10-16T14:07:13;1.90;;;1.40;;
9174;SDS011;54374;50.196;8.050;2022-10-16T14:09:41;1.60;;;1.50;;
9174;SDS011;54374;50.196;8.050;2022-10-16T14:12:08;3.00;;;1.27;;
9174;SDS011;54374;50.196;8.050;2022-10-16T14:14:39;2.87;;;1.60;;
9174;SDS011;54374;50.196;8.050;2022-10-16T14:17:14;1.73;;;1.50;;
9174;SDS011;54374;50.196;8.050;2022-10-16T14:19:44;1.67;;;1.50;;
9174;SDS011;54374;50.196;8.050;2022-10-16T14:22:19;9.50;;;1.60;;
9174;SDS011;54374;50.196;8.050;2022-10-16T14:24:53;1.63;;;1.53;;
9174;SDS011;54374;50.196;8.050;2022-10-16T14:27:28;1.53;;;1.40;;
9174;SDS011;54374;50.196;8.050;2022-10-16T14:32:56;2.50;;;1.27;;
9174;SDS011;54374;50.196;8.050;2022-10-16T14:35:27;1.50;;;1.40;;
9174;SDS011;54374;50.196;8.050;2022-10-16T14:37:56;3.90;;;1.40;;
9174;SDS011;54374;50.196;8.050;2022-10-16T14:40:24;1.40;;;1.30;;
9174;SDS011;54374;50.196;8.050;2022-10-16T14:42:52;2.83;;;1.67;;
9174;SDS011;54374;50.196;8.050;2022-10-16T14:45:19;6.27;;;1.73;;
9174;SDS011;54374;50.196;8.050;2022-10-16T14:47:50;1.50;;;1.40;;
9174;SDS011;54374;50.196;8.050;2022-10-16T14:50:20;1.63;;;1.27;;
9174;SDS011;54374;50.196;8.050;2022-10-16T14:52:47;2.50;;;1.33;;
9174;SDS011;54374;50.196;8.050;2022-10-16T14:55:14;3.23;;;1.93;;
9174;SDS011;54374;50.196;8.050;2022-10-16T14:57:42;7.70;;;1.93;;
9174;SDS011;54374;50.196;8.050;2022-10-16T15:00:10;1.50;;;1.40;;
9174;SDS011;54374;50.196;8.050;2022-10-16T15:02:41;2.43;;;2.00;;
9174;SDS011;54374;50.196;8.050;2022-10-16T15:05:11;2.13;;;2.03;;
9174;SDS011;54374;50.196;8.050;2022-10-16T15:07:41;3.37;;;1.83;;
9174;SDS011;54374;50.196;8.050;2022-10-16T15:10:08;2.53;;;1.90;;
9174;SDS011;54374;50.196;8.050;2022-10-16T15:12:35;3.23;;;1.90;;
9174;SDS011;54374;50.196;8.050;2022-10-16T15:15:09;1.47;;;1.37;;
9174;SDS011;54374;50.196;8.050;2022-10-16T15:17:45;2.50;;;1.40;;
9174;SDS011;54374;50.196;8.050;2022-10-16T15:20:13;2.40;;;1.70;;
9174;SDS011;54374;50.196;8.050;2022-10-16T15:22:42;3.70;;;2.30;;
9174;SDS011;54374;50.196;8.050;2022-10-16T15:25:10;2.70;;;1.63;;